createdAt,value
2019-02-09T00:01:22.960Z,45.27
2019-02-09T00:03:57.178Z,39.47
2019-02-09T00:06:29.405Z,41.03
2019-02-09T00:09:01.771Z,40.67
2019-02-09T00:11:35.833Z,37.97
2019-02-09T00:14:08.184Z,40.97
2019-02-09T00:16:40.483Z,39.87
2019-02-09T00:19:12.860Z,41.00
2019-02-09T00:21:45.168Z,36.53
2019-02-09T00:24:17.538Z,39.70
2019-02-09T00:26:49.836Z,39.23
2019-02-09T00:29:22.153Z,40.90
2019-02-09T00:31:54.614Z,35.57
2019-02-09T00:34:28.116Z,35.17
2019-02-09T00:37:00.448Z,41.30
2019-02-09T00:39:32.778Z,33.73
2019-02-09T00:42:05.125Z,32.90
2019-02-09T00:44:38.542Z,38.70
2019-02-09T00:47:10.924Z,38.73
2019-02-09T00:49:43.226Z,37.67
2019-02-09T00:52:15.545Z,39.57
2019-02-09T00:54:47.899Z,40.80
2019-02-09T00:57:20.184Z,39.83
2019-02-09T00:59:54.317Z,42.30
2019-02-09T01:02:26.435Z,39.90
2019-02-09T01:04:58.730Z,35.73
2019-02-09T01:07:31.046Z,50.10
2019-02-09T01:10:03.348Z,38.05
2019-02-09T01:12:35.726Z,33.97
2019-02-09T01:15:10.728Z,37.40
2019-02-09T01:17:43.127Z,35.90
2019-02-09T01:20:18.755Z,34.03
2019-02-09T01:22:51.297Z,40.70
2019-02-09T01:25:23.534Z,30.30
2019-02-09T01:27:55.914Z,37.67
2019-02-09T01:30:28.736Z,30.95
2019-02-09T01:33:01.121Z,41.37
2019-02-09T01:35:33.469Z,32.83
2019-02-09T01:38:05.822Z,39.45
2019-02-09T01:40:38.084Z,41.25
2019-02-09T01:43:10.414Z,35.73
2019-02-09T01:45:42.686Z,36.25
2019-02-09T01:48:15.018Z,37.47
2019-02-09T01:50:47.350Z,37.93
2019-02-09T01:53:19.623Z,35.38
2019-02-09T01:55:51.951Z,39.18
2019-02-09T01:58:25.314Z,39.85
2019-02-09T02:00:57.567Z,35.33
2019-02-09T02:03:29.885Z,34.27
2019-02-09T02:06:02.179Z,33.33
2019-02-09T02:08:34.423Z,38.42
2019-02-09T02:11:06.867Z,39.08
2019-02-09T02:13:39.170Z,39.27
2019-02-09T02:16:11.413Z,35.33
2019-02-09T02:18:43.676Z,40.00
2019-02-09T02:21:15.977Z,40.20
2019-02-09T02:23:48.254Z,39.63
2019-02-09T02:26:20.538Z,42.13
2019-02-09T02:28:52.818Z,37.13
2019-02-09T02:31:25.208Z,40.88
2019-02-09T02:33:57.509Z,47.63
2019-02-09T02:36:29.771Z,43.10
2019-02-09T02:39:02.078Z,37.67
2019-02-09T02:41:35.931Z,37.60
2019-02-09T02:44:08.219Z,42.93
2019-02-09T02:46:40.554Z,37.93
2019-02-09T02:49:12.928Z,38.02
2019-02-09T02:51:45.338Z,31.67
2019-02-09T02:54:17.649Z,43.68
2019-02-09T02:56:49.891Z,50.07
2019-02-09T02:59:22.164Z,54.45
2019-02-09T03:01:54.414Z,35.67
2019-02-09T03:04:26.832Z,32.77
2019-02-09T03:06:59.064Z,37.83
2019-02-09T03:09:31.413Z,45.57
2019-02-09T03:12:03.675Z,33.48
2019-02-09T03:14:35.952Z,41.73
2019-02-09T03:17:08.280Z,42.17
2019-02-09T03:19:40.518Z,33.25
2019-02-09T03:22:13.149Z,32.78
2019-02-09T03:24:45.753Z,35.15
2019-02-09T03:27:18.062Z,30.00
2019-02-09T03:29:50.346Z,34.50
2019-02-09T03:32:22.697Z,33.88
2019-02-09T03:34:54.927Z,32.90
2019-02-09T03:37:27.222Z,32.40
2019-02-09T03:40:00.560Z,32.00
2019-02-09T03:42:32.860Z,32.83
2019-02-09T03:45:07.318Z,39.57
2019-02-09T03:47:39.691Z,32.57
2019-02-09T03:50:12.946Z,30.23
2019-02-09T03:52:45.273Z,35.08
2019-02-09T03:55:17.637Z,36.93
2019-02-09T03:57:49.925Z,33.03
2019-02-09T04:00:24.252Z,30.23
2019-02-09T04:02:57.097Z,31.10
2019-02-09T04:05:29.699Z,41.95
2019-02-09T04:08:02.109Z,30.97
2019-02-09T04:10:34.770Z,29.13
2019-02-09T04:13:07.100Z,33.10
2019-02-09T04:15:39.373Z,28.67
2019-02-09T04:18:11.692Z,29.48
2019-02-09T04:20:44.020Z,25.48
2019-02-09T04:23:16.245Z,28.80
2019-02-09T04:25:48.554Z,28.45
2019-02-09T04:28:20.835Z,32.48
2019-02-09T04:30:53.078Z,28.00
2019-02-09T04:33:25.443Z,35.60
2019-02-09T04:35:57.831Z,31.07
2019-02-09T04:38:30.119Z,27.87
2019-02-09T04:41:02.511Z,29.63
2019-02-09T04:43:34.832Z,35.65
2019-02-09T04:46:07.069Z,30.43
2019-02-09T04:48:39.408Z,28.40
2019-02-09T04:51:11.676Z,33.40
2019-02-09T04:53:43.940Z,29.27
2019-02-09T04:56:26.065Z,30.47
2019-02-09T04:59:03.625Z,30.00
2019-02-09T05:01:35.989Z,28.83
2019-02-09T05:04:08.293Z,27.70
2019-02-09T05:06:40.547Z,28.43
2019-02-09T05:09:12.919Z,24.53
2019-02-09T05:11:45.185Z,24.53
2019-02-09T05:14:17.438Z,28.00
2019-02-09T05:16:49.782Z,29.67
2019-02-09T05:19:22.102Z,27.50
2019-02-09T05:21:54.384Z,27.80
2019-02-09T05:24:26.744Z,27.35
2019-02-09T05:26:59.073Z,25.13
2019-02-09T05:29:31.444Z,25.47
2019-02-09T05:32:03.700Z,26.93
2019-02-09T05:34:35.983Z,29.93
2019-02-09T05:37:08.350Z,25.73
2019-02-09T05:39:40.683Z,25.13
2019-02-09T05:42:12.951Z,20.92
2019-02-09T05:44:45.282Z,23.20
2019-02-09T05:47:17.615Z,21.20
2019-02-09T05:49:49.867Z,25.63
2019-02-09T05:52:22.227Z,26.27
2019-02-09T05:54:54.565Z,21.33
2019-02-09T05:57:26.887Z,20.77
2019-02-09T05:59:59.158Z,24.70
2019-02-09T06:02:31.446Z,24.73
2019-02-09T06:05:05.019Z,23.00
2019-02-09T06:07:37.356Z,23.20
2019-02-09T06:10:13.617Z,25.50
2019-02-09T06:12:46.027Z,20.30
2019-02-09T06:15:18.702Z,26.40
2019-02-09T06:17:51.081Z,20.88
2019-02-09T06:20:25.355Z,28.87
2019-02-09T06:22:58.024Z,20.70
2019-02-09T06:25:30.434Z,22.13
2019-02-09T06:28:02.752Z,20.35
2019-02-09T06:30:34.990Z,24.92
2019-02-09T06:33:09.318Z,22.48
2019-02-09T06:35:41.684Z,20.73
2019-02-09T06:38:14.087Z,23.13
2019-02-09T06:40:46.317Z,22.97
2019-02-09T06:43:18.546Z,26.10
2019-02-09T06:45:50.862Z,22.10
2019-02-09T06:48:28.314Z,23.07
2019-02-09T06:51:02.158Z,26.23
2019-02-09T06:53:34.618Z,21.47
2019-02-09T06:56:07.028Z,24.98
2019-02-09T06:58:39.339Z,25.65
2019-02-09T07:01:11.611Z,31.63
2019-02-09T07:03:43.881Z,30.77
2019-02-09T07:06:16.572Z,23.80
2019-02-09T07:08:48.913Z,28.73
2019-02-09T07:11:21.162Z,25.55
2019-02-09T07:13:53.436Z,29.20
2019-02-09T07:16:25.826Z,24.85
2019-02-09T07:18:58.278Z,24.27
2019-02-09T07:21:30.580Z,26.95
2019-02-09T07:24:02.889Z,25.10
2019-02-09T07:26:35.131Z,26.42
2019-02-09T07:29:07.424Z,31.27
2019-02-09T07:31:39.727Z,27.70
2019-02-09T07:34:12.000Z,29.00
2019-02-09T07:36:44.244Z,32.97
2019-02-09T07:39:16.523Z,29.23
2019-02-09T07:41:48.867Z,28.75
2019-02-09T07:44:21.142Z,31.33
2019-02-09T07:46:53.611Z,28.30
2019-02-09T07:49:25.876Z,26.42
2019-02-09T07:51:58.228Z,34.77
2019-02-09T07:54:30.500Z,30.05
2019-02-09T07:57:02.842Z,31.60
2019-02-09T07:59:35.134Z,33.83
2019-02-09T08:02:07.469Z,28.30
2019-02-09T08:04:39.940Z,32.67
2019-02-09T08:07:12.659Z,107.58
2019-02-09T08:09:45.007Z,127.10
2019-02-09T08:12:17.301Z,37.78
2019-02-09T08:14:49.624Z,37.70
2019-02-09T08:17:21.921Z,35.83
2019-02-09T08:19:54.301Z,34.40
2019-02-09T08:22:26.600Z,37.03
2019-02-09T08:24:58.990Z,30.00
2019-02-09T08:27:31.272Z,32.17
2019-02-09T08:30:03.760Z,28.62
2019-02-09T08:32:36.140Z,26.05
2019-02-09T08:35:09.355Z,24.20
2019-02-09T08:37:41.667Z,25.43
2019-02-09T08:40:14.412Z,25.97
2019-02-09T08:42:46.645Z,31.90
2019-02-09T08:45:19.813Z,27.95
2019-02-09T08:47:52.154Z,29.47
2019-02-09T08:50:27.366Z,32.78
2019-02-09T08:52:59.666Z,26.12
2019-02-09T08:55:31.996Z,27.95
2019-02-09T08:58:04.349Z,29.35
2019-02-09T09:00:38.533Z,32.50
2019-02-09T09:03:11.105Z,26.45
2019-02-09T09:05:43.407Z,27.25
2019-02-09T09:08:16.607Z,25.68
2019-02-09T09:10:48.970Z,28.40
2019-02-09T09:13:21.194Z,26.35
2019-02-09T09:15:55.410Z,26.40
2019-02-09T09:18:28.788Z,25.87
2019-02-09T09:21:03.095Z,27.00
2019-02-09T09:23:35.332Z,26.77
2019-02-09T09:26:07.782Z,27.62
2019-02-09T09:28:40.317Z,24.25
2019-02-09T09:31:12.601Z,23.00
2019-02-09T09:33:44.923Z,25.65
2019-02-09T09:36:17.235Z,23.00
2019-02-09T09:38:49.621Z,24.00
2019-02-09T09:41:21.950Z,23.55
2019-02-09T09:43:54.280Z,25.35
2019-02-09T09:46:26.553Z,24.90
2019-02-09T09:48:58.821Z,26.30
2019-02-09T09:51:31.055Z,24.95
2019-02-09T09:54:03.315Z,28.85
2019-02-09T09:56:35.559Z,24.50
2019-02-09T09:59:07.823Z,26.05
2019-02-09T10:01:40.153Z,27.40
2019-02-09T10:04:12.459Z,27.02
2019-02-09T10:06:44.723Z,34.23
2019-02-09T10:09:16.968Z,27.20
2019-02-09T10:11:49.244Z,26.68
2019-02-09T10:14:21.564Z,25.97
2019-02-09T10:16:53.829Z,22.82
2019-02-09T10:19:26.101Z,24.85
2019-02-09T10:21:58.345Z,26.35
2019-02-09T10:24:30.590Z,24.57
2019-02-09T10:27:02.952Z,22.50
2019-02-09T10:29:35.246Z,23.70
2019-02-09T10:32:07.470Z,29.00
2019-02-09T10:34:39.734Z,27.70
2019-02-09T10:37:11.974Z,22.32
2019-02-09T10:39:44.324Z,26.77
2019-02-09T10:42:16.571Z,23.80
2019-02-09T10:44:48.825Z,18.30
2019-02-09T10:47:21.051Z,23.20
2019-02-09T10:49:53.318Z,19.25
2019-02-09T10:52:25.574Z,20.48
2019-02-09T10:54:57.915Z,21.90
2019-02-09T10:57:30.140Z,21.00
2019-02-09T11:00:02.464Z,21.27
2019-02-09T11:02:34.976Z,21.62
2019-02-09T11:05:07.960Z,22.32
2019-02-09T11:07:40.345Z,20.37
2019-02-09T11:10:14.588Z,20.77
2019-02-09T11:12:47.713Z,23.73
2019-02-09T11:15:20.729Z,19.50
2019-02-09T11:17:53.432Z,14.58
2019-02-09T11:20:25.876Z,16.62
2019-02-09T11:22:58.297Z,13.13
2019-02-09T11:25:30.578Z,13.30
2019-02-09T11:28:02.950Z,10.25
2019-02-09T11:30:35.462Z,14.30
2019-02-09T11:33:07.921Z,13.58
2019-02-09T11:35:40.326Z,13.62
2019-02-09T11:38:13.688Z,12.60
2019-02-09T11:40:46.143Z,15.58
2019-02-09T11:43:18.464Z,13.70
2019-02-09T11:45:50.761Z,12.30
2019-02-09T11:48:23.036Z,17.27
2019-02-09T11:50:55.307Z,11.75
2019-02-09T11:53:28.145Z,14.38
2019-02-09T11:56:00.580Z,11.57
2019-02-09T11:58:32.942Z,10.30
2019-02-09T12:01:06.312Z,11.63
2019-02-09T12:03:39.453Z,12.23
2019-02-09T12:06:12.465Z,11.68
2019-02-09T12:08:44.879Z,11.95
2019-02-09T12:11:17.313Z,9.73
2019-02-09T12:13:55.145Z,10.68
2019-02-09T12:16:23.604Z,13.05
2019-02-09T12:18:56.011Z,9.20
2019-02-09T12:21:28.534Z,9.25
2019-02-09T12:24:00.841Z,12.78
2019-02-09T12:26:33.314Z,7.90
2019-02-09T12:29:05.976Z,8.33
2019-02-09T12:31:38.304Z,6.28
2019-02-09T12:34:10.592Z,10.90
2019-02-09T12:36:42.945Z,11.18
2019-02-09T12:39:15.329Z,11.57
2019-02-09T12:41:47.633Z,11.35
2019-02-09T12:44:19.910Z,9.50
2019-02-09T12:46:52.270Z,10.10
2019-02-09T12:49:25.587Z,9.85
2019-02-09T12:51:57.879Z,11.83
2019-02-09T12:54:30.204Z,9.35
2019-02-09T12:57:02.581Z,11.30
2019-02-09T12:59:39.667Z,10.18
2019-02-09T13:02:12.203Z,7.08
2019-02-09T13:05:01.236Z,10.48
2019-02-09T13:07:33.709Z,12.23
2019-02-09T13:10:06.876Z,9.00
2019-02-09T13:12:39.367Z,7.83
2019-02-09T13:15:14.637Z,6.65
2019-02-09T13:17:47.264Z,9.18
2019-02-09T13:20:25.612Z,11.08
2019-02-09T13:22:58.340Z,7.55
2019-02-09T13:25:30.808Z,10.50
2019-02-09T13:28:03.157Z,13.25
2019-02-09T13:30:35.863Z,13.35
2019-02-09T13:33:09.389Z,14.70
2019-02-09T13:35:42.096Z,16.30
2019-02-09T13:38:14.450Z,17.45
2019-02-09T13:40:46.867Z,15.28
2019-02-09T13:43:19.302Z,14.68
2019-02-09T13:45:53.203Z,16.90
2019-02-09T13:48:25.661Z,20.82
2019-02-09T13:50:58.164Z,15.90
2019-02-09T13:53:31.490Z,10.68
2019-02-09T13:56:03.853Z,12.20
2019-02-09T13:58:36.237Z,13.13
2019-02-09T14:01:08.682Z,13.98
2019-02-09T14:03:46.662Z,13.38
2019-02-09T14:06:15.258Z,14.23
2019-02-09T14:08:48.745Z,15.50
2019-02-09T14:11:21.037Z,14.13
2019-02-09T14:13:53.317Z,13.38
2019-02-09T14:16:25.787Z,15.70
2019-02-09T14:18:58.083Z,13.88
2019-02-09T14:21:30.610Z,13.15
2019-02-09T14:24:02.862Z,12.98
2019-02-09T14:26:35.418Z,16.45
2019-02-09T14:29:07.989Z,14.78
2019-02-09T14:31:40.483Z,15.30
2019-02-09T14:34:13.119Z,13.08
2019-02-09T14:36:46.571Z,13.48
2019-02-09T14:39:21.096Z,15.65
2019-02-09T14:41:54.456Z,19.23
2019-02-09T14:44:26.974Z,19.02
2019-02-09T14:46:59.500Z,15.75
2019-02-09T14:49:31.931Z,15.13
2019-02-09T14:52:04.857Z,16.70
2019-02-09T14:54:37.194Z,13.03
2019-02-09T14:57:09.620Z,14.10
2019-02-09T14:59:41.980Z,15.30
2019-02-09T15:02:14.273Z,18.30
2019-02-09T15:04:46.609Z,20.30
2019-02-09T15:07:18.875Z,28.42
2019-02-09T15:09:51.317Z,22.98
2019-02-09T15:12:23.607Z,23.27
2019-02-09T15:14:55.886Z,14.25
2019-02-09T15:17:28.297Z,19.55
2019-02-09T15:20:00.637Z,15.08
2019-02-09T15:22:33.027Z,23.90
2019-02-09T15:25:06.420Z,19.67
2019-02-09T15:27:38.684Z,20.50
2019-02-09T15:30:13.828Z,19.25
2019-02-09T15:32:46.220Z,18.35
2019-02-09T15:35:18.553Z,19.45
2019-02-09T15:37:50.829Z,17.82
2019-02-09T15:40:24.308Z,15.48
2019-02-09T15:42:56.683Z,16.70
2019-02-09T15:45:29.278Z,20.65
2019-02-09T15:48:01.654Z,20.17
2019-02-09T15:50:35.136Z,20.65
2019-02-09T15:53:07.492Z,22.60
2019-02-09T15:55:39.906Z,24.47
2019-02-09T15:58:12.215Z,28.55
2019-02-09T16:00:44.564Z,19.02
2019-02-09T16:03:16.893Z,20.77
2019-02-09T16:05:49.185Z,15.28
2019-02-09T16:08:21.594Z,17.65
2019-02-09T16:10:53.961Z,16.77
2019-02-09T16:13:26.383Z,21.27
2019-02-09T16:15:59.085Z,20.68
2019-02-09T16:18:31.521Z,16.55
2019-02-09T16:21:04.029Z,18.90
2019-02-09T16:23:36.458Z,22.98
2019-02-09T16:26:19.770Z,23.57
2019-02-09T16:28:52.194Z,18.48
2019-02-09T16:31:24.655Z,17.17
2019-02-09T16:33:57.106Z,18.27
2019-02-09T16:36:29.440Z,14.25
2019-02-09T16:39:01.936Z,15.55
2019-02-09T16:41:35.794Z,15.53
2019-02-09T16:44:08.291Z,16.67
2019-02-09T16:46:40.635Z,21.12
2019-02-09T16:49:15.343Z,15.63
2019-02-09T16:51:47.661Z,15.40
2019-02-09T16:54:20.172Z,17.70
2019-02-09T16:56:52.528Z,18.07
2019-02-09T16:59:26.692Z,16.87
2019-02-09T17:01:59.021Z,17.35
2019-02-09T17:04:33.325Z,15.90
2019-02-09T17:07:05.898Z,17.27
2019-02-09T17:09:38.259Z,17.98
2019-02-09T17:12:10.655Z,16.97
2019-02-09T17:14:43.002Z,16.80
2019-02-09T17:17:15.498Z,14.70
2019-02-09T17:19:49.379Z,17.85
2019-02-09T17:22:21.780Z,16.45
2019-02-09T17:24:54.108Z,17.07
2019-02-09T17:27:26.491Z,18.80
2019-02-09T17:29:58.802Z,18.42
2019-02-09T17:32:31.203Z,22.85
2019-02-09T17:35:03.653Z,13.83
2019-02-09T17:37:36.088Z,19.00
2019-02-09T17:40:12.177Z,25.88
2019-02-09T17:42:44.545Z,32.13
2019-02-09T17:45:19.888Z,48.10
2019-02-09T17:47:52.219Z,40.92
2019-02-09T17:50:24.746Z,32.38
2019-02-09T17:52:57.189Z,24.80
2019-02-09T17:55:29.734Z,29.27
2019-02-09T17:58:02.271Z,25.85
2019-02-09T18:00:39.994Z,26.48
2019-02-09T18:03:12.570Z,23.47
2019-02-09T18:05:45.095Z,24.00
2019-02-09T18:08:17.583Z,21.75
2019-02-09T18:10:49.968Z,22.75
2019-02-09T18:13:22.591Z,20.23
2019-02-09T18:15:54.938Z,18.48
2019-02-09T18:18:27.284Z,19.32
2019-02-09T18:20:59.674Z,15.15
2019-02-09T18:23:32.258Z,16.00
2019-02-09T18:26:04.989Z,19.32
2019-02-09T18:28:37.433Z,16.90
2019-02-09T18:31:09.990Z,13.43
2019-02-09T18:33:42.416Z,14.77
2019-02-09T18:36:14.865Z,18.00
2019-02-09T18:38:48.406Z,17.32
2019-02-09T18:41:20.842Z,17.17
2019-02-09T18:43:53.278Z,18.27
2019-02-09T18:46:25.959Z,15.13
2019-02-09T18:48:58.536Z,16.23
2019-02-09T18:51:31.067Z,16.87
2019-02-09T18:54:03.579Z,13.60
2019-02-09T18:56:36.200Z,14.73
2019-02-09T18:59:08.912Z,19.50
2019-02-09T19:01:41.428Z,16.52
2019-02-09T19:04:16.935Z,13.80
2019-02-09T19:06:50.295Z,15.40
2019-02-09T19:09:25.884Z,16.25
2019-02-09T19:11:58.386Z,17.77
2019-02-09T19:14:31.013Z,14.55
2019-02-09T19:17:03.522Z,16.17
2019-02-09T19:19:36.213Z,19.30
2019-02-09T19:22:09.494Z,14.78
2019-02-09T19:24:41.974Z,13.80
2019-02-09T19:27:14.523Z,18.05
2019-02-09T19:29:46.879Z,19.37
2019-02-09T19:32:24.409Z,19.37
2019-02-09T19:34:58.379Z,14.18
2019-02-09T19:37:30.852Z,15.88
2019-02-09T19:40:03.197Z,16.02
2019-02-09T19:42:35.743Z,17.77
2019-02-09T19:45:11.809Z,14.38
2019-02-09T19:47:44.358Z,21.52
2019-02-09T19:50:19.934Z,17.32
2019-02-09T19:52:52.497Z,18.55
2019-02-09T19:55:26.850Z,17.73
2019-02-09T19:57:59.305Z,15.40
2019-02-09T20:00:34.539Z,15.00
2019-02-09T20:03:08.103Z,14.25
2019-02-09T20:05:40.667Z,19.32
2019-02-09T20:08:13.518Z,21.65
2019-02-09T20:10:45.979Z,17.07
2019-02-09T20:13:18.542Z,17.10
2019-02-09T20:15:51.474Z,16.10
2019-02-09T20:18:23.818Z,17.67
2019-02-09T20:20:57.008Z,19.32
2019-02-09T20:23:29.500Z,15.75
2019-02-09T20:26:02.083Z,22.82
2019-02-09T20:28:34.947Z,18.48
2019-02-09T20:31:16.764Z,13.50
2019-02-09T20:33:57.326Z,17.67
2019-02-09T20:36:29.915Z,17.77
2019-02-09T20:39:08.317Z,19.52
2019-02-09T20:41:41.614Z,16.32
2019-02-09T20:44:14.152Z,20.68
2019-02-09T20:46:46.598Z,19.77
2019-02-09T20:49:19.159Z,17.65
2019-02-09T20:51:51.569Z,15.20
2019-02-09T20:54:23.946Z,17.42
2019-02-09T20:57:09.373Z,16.35
2019-02-09T20:59:40.216Z,16.62
2019-02-09T21:02:12.682Z,18.62
2019-02-09T21:04:45.174Z,20.85
2019-02-09T21:07:24.563Z,15.85
2019-02-09T21:09:56.198Z,13.80
2019-02-09T21:12:30.491Z,16.20
2019-02-09T21:15:02.935Z,13.28
2019-02-09T21:17:35.647Z,10.78
2019-02-09T21:20:08.279Z,9.98
2019-02-09T21:22:40.809Z,7.58
2019-02-09T21:25:17.879Z,10.68
2019-02-09T21:27:52.152Z,7.92
2019-02-09T21:30:25.132Z,6.00
2019-02-09T21:33:11.832Z,6.85
2019-02-09T21:35:44.597Z,9.03
2019-02-09T21:38:17.011Z,8.83
2019-02-09T21:40:49.447Z,8.53
2019-02-09T21:43:21.953Z,12.20
2019-02-09T21:45:54.503Z,8.00
2019-02-09T21:48:27.173Z,13.98
2019-02-09T21:50:59.550Z,9.30
2019-02-09T21:53:31.978Z,8.00
2019-02-09T21:56:04.512Z,6.35
2019-02-09T21:58:38.107Z,6.95
2019-02-09T22:01:10.727Z,7.60
2019-02-09T22:03:44.583Z,6.30
2019-02-09T22:06:17.002Z,8.43
2019-02-09T22:08:49.728Z,7.83
2019-02-09T22:11:22.382Z,11.15
2019-02-09T22:13:54.863Z,9.85
2019-02-09T22:16:27.492Z,12.45
2019-02-09T22:19:00.960Z,11.60
2019-02-09T22:21:33.688Z,13.25
2019-02-09T22:24:06.141Z,14.50
2019-02-09T22:26:40.229Z,13.78
2019-02-09T22:29:12.770Z,11.78
2019-02-09T22:31:51.189Z,9.58
2019-02-09T22:34:21.229Z,12.13
2019-02-09T22:36:53.660Z,9.88
2019-02-09T22:39:27.674Z,16.27
2019-02-09T22:42:01.886Z,11.63
2019-02-09T22:44:35.266Z,8.73
2019-02-09T22:47:07.551Z,12.20
2019-02-09T22:49:39.968Z,9.95
2019-02-09T22:52:12.395Z,11.83
2019-02-09T22:54:44.687Z,13.40
2019-02-09T22:57:17.137Z,14.20
2019-02-09T22:59:49.499Z,10.63
2019-02-09T23:02:21.943Z,13.53
2019-02-09T23:05:44.556Z,13.03
2019-02-09T23:08:16.986Z,8.23
2019-02-09T23:10:49.353Z,13.75
2019-02-09T23:13:21.704Z,10.08
2019-02-09T23:15:54.104Z,11.35
2019-02-09T23:18:26.501Z,9.80
2019-02-09T23:20:58.878Z,11.90
2019-02-09T23:23:31.226Z,14.13
2019-02-09T23:26:03.625Z,10.38
2019-02-09T23:28:35.863Z,13.93
2019-02-09T23:31:08.174Z,8.60
2019-02-09T23:33:40.558Z,7.53
2019-02-09T23:36:16.296Z,12.00
2019-02-09T23:38:47.150Z,8.63
2019-02-09T23:41:19.503Z,11.03
2019-02-09T23:43:51.925Z,11.48
2019-02-09T23:46:24.872Z,11.20
2019-02-09T23:48:57.219Z,6.75
2019-02-09T23:51:29.521Z,8.35
2019-02-09T23:54:02.626Z,10.05
2019-02-09T23:56:34.989Z,9.48
2019-02-09T23:59:07.484Z,8.05
